Time,TemperatureF,DewpointF,PressureIn,WindDirection,WindDirectionDegrees,WindSpeedMPH,WindSpeedGustMPH,Humidity,HourlyPrecipIn,Conditions,Clouds,dailyrainin,SoftwareType,DateUTC
2013-08-25 00:00:00,66.0,52.0,30.34,WSW,240,5.0,5.0,60,-99.99,,,-99.99,,2013-08-25 04:00:00,
2013-08-25 00:43:00,66.0,52.0,30.34,WSW,240,5.0,5.0,60,-99.99,,,-99.99,,2013-08-25 04:43:00,
2013-08-25 00:54:00,66.0,52.0,30.34,WSW,240,5.0,5.0,60,-99.99,,,-99.99,,2013-08-25 04:54:00,
2013-08-25 01:00:00,65.0,54.0,30.34,West,260,8.0,8.0,66,-99.99,,,-99.99,,2013-08-25 05:00:00,
2013-08-25 01:42:00,65.0,54.0,30.34,West,260,8.0,8.0,66,-99.99,,,-99.99,,2013-08-25 05:42:00,
2013-08-25 01:52:00,65.0,54.0,30.34,West,260,8.0,8.0,66,-99.99,,,-99.99,,2013-08-25 05:52:00,
2013-08-25 02:00:00,65.0,56.0,30.32,West,270,7.0,7.0,70,-99.99,,,-99.99,,2013-08-25 06:00:00,
2013-08-25 02:43:00,65.0,56.0,30.32,West,270,7.0,7.0,70,-99.99,,,-99.99,,2013-08-25 06:43:00,
2013-08-25 02:52:00,65.0,56.0,30.32,West,270,7.0,7.0,70,-99.99,,,-99.99,,2013-08-25 06:52:00,
2013-08-25 05:44:00,65.0,58.0,30.32,West,270,8.0,8.0,76,-99.99,,,-99.99,,2013-08-25 09:44:00,
2013-08-25 07:00:00,65.0,59.0,30.35,West,270,9.0,10.0,80,-99.99,,,-99.99,,2013-08-25 11:00:00,
2013-08-25 07:42:00,65.0,59.0,30.35,West,270,9.0,10.0,80,-99.99,,,-99.99,,2013-08-25 11:42:00,
2013-08-25 07:52:00,65.0,59.0,30.35,West,270,9.0,10.0,80,-99.99,,,-99.99,,2013-08-25 11:52:00,
2013-08-25 08:00:00,64.0,60.0,30.36,WSW,250,7.0,8.0,85,-99.99,,,-99.99,,2013-08-25 12:00:00,
2013-08-25 08:42:00,64.0,60.0,30.36,WSW,250,7.0,8.0,85,-99.99,,,-99.99,,2013-08-25 12:42:00,
2013-08-25 08:52:00,64.0,60.0,30.36,WSW,250,7.0,8.0,85,-99.99,,,-99.99,,2013-08-25 12:52:00,
2013-08-25 09:00:00,64.0,61.0,30.37,WSW,250,6.0,6.0,89,-99.99,,,-99.99,,2013-08-25 13:00:00,
2013-08-25 09:42:00,64.0,61.0,30.37,WSW,250,6.0,6.0,89,-99.99,,,-99.99,,2013-08-25 13:42:00,
2013-08-25 09:52:00,64.0,61.0,30.37,WSW,250,6.0,6.0,89,-99.99,,,-99.99,,2013-08-25 13:52:00,
2013-08-25 10:00:00,66.0,59.0,30.36,SW,230,1.0,1.0,79,-99.99,,,-99.99,,2013-08-25 14:00:00,
2013-08-25 10:42:00,66.0,59.0,30.36,SW,230,1.0,1.0,79,-99.99,,,-99.99,,2013-08-25 14:42:00,
2013-08-25 10:52:00,66.0,59.0,30.36,SW,230,1.0,1.0,79,-99.99,,,-99.99,,2013-08-25 14:52:00,
2013-08-25 11:00:00,66.0,60.0,30.35,SW,220,3.0,3.0,81,-99.99,,,-99.99,,2013-08-25 15:00:00,
2013-08-25 11:44:00,66.0,60.0,30.35,SW,220,3.0,3.0,81,-99.99,,,-99.99,,2013-08-25 15:44:00,
2013-08-25 11:54:00,66.0,60.0,30.35,SW,220,3.0,3.0,81,-99.99,,,-99.99,,2013-08-25 15:54:00,
2013-08-25 12:00:00,66.0,61.0,30.34,SW,220,6.0,7.0,82,-99.99,,,-99.99,,2013-08-25 16:00:00,
2013-08-25 12:44:00,66.0,61.0,30.34,SW,220,6.0,7.0,82,-99.99,,,-99.99,,2013-08-25 16:44:00,
2013-08-25 12:53:00,66.0,61.0,30.34,SW,220,6.0,7.0,82,-99.99,,,-99.99,,2013-08-25 16:53:00,
2013-08-25 13:00:00,67.0,61.0,30.32,SW,220,9.0,10.0,82,-99.99,,,-99.99,,2013-08-25 17:00:00,
2013-08-25 13:42:00,67.0,61.0,30.32,SW,220,9.0,10.0,82,-99.99,,,-99.99,,2013-08-25 17:42:00,
2013-08-25 13:53:00,67.0,61.0,30.32,SW,220,9.0,10.0,82,-99.99,,,-99.99,,2013-08-25 17:53:00,
2013-08-25 14:00:00,68.0,61.0,30.30,SSW,210,10.0,11.0,78,-99.99,,,-99.99,,2013-08-25 18:00:00,
2013-08-25 14:42:00,68.0,61.0,30.30,SSW,210,10.0,11.0,78,-99.99,,,-99.99,,2013-08-25 18:42:00,
2013-08-25 14:52:00,68.0,61.0,30.30,SSW,210,10.0,11.0,78,-99.99,,,-99.99,,2013-08-25 18:52:00,
2013-08-25 15:00:00,68.0,62.0,30.29,SW,220,13.0,13.0,78,-99.99,,,-99.99,,2013-08-25 19:00:00,
2013-08-25 15:42:00,68.0,62.0,30.29,SW,220,13.0,13.0,78,-99.99,,,-99.99,,2013-08-25 19:42:00,
2013-08-25 15:53:00,68.0,62.0,30.29,SW,220,13.0,13.0,78,-99.99,,,-99.99,,2013-08-25 19:53:00,
2013-08-25 18:00:00,69.0,65.0,30.26,SW,220,15.0,16.0,88,-99.99,,,-99.99,,2013-08-25 22:00:00,
2013-08-25 18:43:00,69.0,65.0,30.26,SW,220,15.0,16.0,88,-99.99,,,-99.99,,2013-08-25 22:43:00,
2013-08-25 18:53:00,69.0,65.0,30.26,SW,220,15.0,16.0,88,-99.99,,,-99.99,,2013-08-25 22:53:00,
2013-08-25 19:00:00,69.0,63.0,30.23,SW,220,15.0,16.0,83,-99.99,,,-99.99,,2013-08-25 23:00:00,
2013-08-25 19:42:00,69.0,63.0,30.23,SW,220,15.0,16.0,83,-99.99,,,-99.99,,2013-08-25 23:42:00,
2013-08-25 19:53:00,69.0,63.0,30.23,SW,220,15.0,16.0,83,-99.99,,,-99.99,,2013-08-25 23:53:00,
2013-08-25 20:00:00,68.0,63.0,30.22,SW,220,17.0,18.0,83,-99.99,,,-99.99,,2013-08-26 00:00:00,
2013-08-25 20:41:00,68.0,63.0,30.22,SW,220,17.0,18.0,83,-99.99,,,-99.99,,2013-08-26 00:41:00,
2013-08-25 20:52:00,68.0,63.0,30.22,SW,220,17.0,18.0,83,-99.99,,,-99.99,,2013-08-26 00:52:00,
2013-08-25 21:00:00,68.0,63.0,30.23,SW,220,17.0,18.0,83,-99.99,,,-99.99,,2013-08-26 01:00:00,
2013-08-25 21:42:00,68.0,63.0,30.23,SW,220,17.0,18.0,83,-99.99,,,-99.99,,2013-08-26 01:42:00,
2013-08-25 21:52:00,68.0,63.0,30.23,SW,220,17.0,18.0,83,-99.99,,,-99.99,,2013-08-26 01:52:00,
2013-08-25 22:00:00,68.0,63.0,30.23,SW,220,16.0,18.0,85,-99.99,,,-99.99,,2013-08-26 02:00:00,
2013-08-25 22:42:00,68.0,63.0,30.23,SW,220,16.0,18.0,85,-99.99,,,-99.99,,2013-08-26 02:42:00,
2013-08-25 22:52:00,68.0,63.0,30.23,SW,220,16.0,18.0,85,-99.99,,,-99.99,,2013-08-26 02:52:00,
2013-08-25 23:00:00,68.0,64.0,30.22,SW,220,18.0,20.0,86,-99.99,,,-99.99,,2013-08-26 03:00:00,
2013-08-25 23:44:00,68.0,64.0,30.22,SW,220,18.0,20.0,86,-99.99,,,-99.99,,2013-08-26 03:44:00,
2013-08-25 23:55:00,68.0,64.0,30.22,SW,220,18.0,20.0,86,-99.99,,,-99.99,,2013-08-26 03:55:00,